地図

経路データ

SID SEASON NUMBER BASIN SUBBASIN NAME ISO_TIME NATURE LAT LON WMO_WIND WMO_PRES WMO_AGENCY TRACK_TYPE DIST2LAND LANDFALL IFLAG USA_AGENCY USA_ATCF_ID USA_LAT USA_LON USA_RECORD USA_STATUS USA_WIND USA_PRES USA_SSHS USA_R34_NE USA_R34_SE USA_R34_SW USA_R34_NW USA_R50_NE USA_R50_SE USA_R50_SW USA_R50_NW USA_R64_NE USA_R64_SE USA_R64_SW USA_R64_NW USA_POCI USA_ROCI USA_RMW USA_EYE TOKYO_LAT TOKYO_LON TOKYO_GRADE TOKYO_WIND TOKYO_PRES TOKYO_R50_DIR TOKYO_R50_LONG TOKYO_R50_SHORT TOKYO_R30_DIR TOKYO_R30_LONG TOKYO_R30_SHORT TOKYO_LAND CMA_LAT CMA_LON CMA_CAT CMA_WIND CMA_PRES HKO_LAT HKO_LON HKO_CAT HKO_WIND HKO_PRES NEWDELHI_LAT NEWDELHI_LON NEWDELHI_GRADE NEWDELHI_WIND NEWDELHI_PRES NEWDELHI_CI NEWDELHI_DP NEWDELHI_POCI REUNION_LAT REUNION_LON REUNION_TYPE REUNION_WIND REUNION_PRES REUNION_TNUM REUNION_CI REUNION_RMW REUNION_R34_NE REUNION_R34_SE REUNION_R34_SW REUNION_R34_NW REUNION_R50_NE REUNION_R50_SE REUNION_R50_SW REUNION_R50_NW REUNION_R64_NE REUNION_R64_SE REUNION_R64_SW REUNION_R64_NW BOM_LAT BOM_LON BOM_TYPE BOM_WIND BOM_PRES BOM_TNUM BOM_CI BOM_RMW BOM_R34_NE BOM_R34_SE BOM_R34_SW BOM_R34_NW BOM_R50_NE BOM_R50_SE BOM_R50_SW BOM_R50_NW BOM_R64_NE BOM_R64_SE BOM_R64_SW BOM_R64_NW BOM_ROCI BOM_POCI BOM_EYE BOM_POS_METHOD BOM_PRES_METHOD NADI_LAT NADI_LON NADI_CAT NADI_WIND NADI_PRES WELLINGTON_LAT WELLINGTON_LON WELLINGTON_WIND WELLINGTON_PRES DS824_LAT DS824_LON DS824_STAGE DS824_WIND DS824_PRES TD9636_LAT TD9636_LON TD9636_STAGE TD9636_WIND TD9636_PRES TD9635_LAT TD9635_LON TD9635_WIND TD9635_PRES TD9635_ROCI NEUMANN_LAT NEUMANN_LON NEUMANN_CLASS NEUMANN_WIND NEUMANN_PRES MLC_LAT MLC_LON MLC_CLASS MLC_WIND MLC_PRES USA_GUST BOM_GUST BOM_GUST_PER REUNION_GUST REUNION_GUST_PER USA_SEAHGT USA_SEARAD_NE USA_SEARAD_SE USA_SEARAD_SW USA_SEARAD_NW STORM_SPEED STORM_DIR
1943007S17041 1943 4 SI MM NOT_NAMED 1943-01-06 18:00:00 NR -16.5000 40.6000 main 72 72 __________O___ -1 -16.5000 40.6000 7 2 199
1943007S17041 1943 4 SI MM NOT_NAMED 1943-01-06 21:00:00 NR -16.5748 40.5734 main 78 78 __________P___ -1 -16.5748 40.5734 7 2 0
1943007S17041 1943 4 SI MM NOT_NAMED 1943-01-07 00:00:00 NR -16.6997 40.5873 main 85 85 __________P___ -1 -16.6997 40.5873 7 4 164
1943007S17041 1943 4 SI MM NOT_NAMED 1943-01-07 03:00:00 NR -16.9248 40.6824 main 105 105 __________P___ -1 -16.9248 40.6824 7 7 154
1943007S17041 1943 4 SI MM NOT_NAMED 1943-01-07 06:00:00 TS -17.3000 40.9000 main 147 147 _________OO___ -1 -17.3000 40.9000 TC 25 -17.3000 40.9000 1 11 150
1943007S17041 1943 4 SI MM NOT_NAMED 1943-01-07 09:00:00 TS -17.9087 41.2868 main 223 223 _________PP___ -1 -18.0226 41.3220 TC 25 -17.8517 41.2692 1 15 147
1943007S17041 1943 4 SI MM NOT_NAMED 1943-01-07 12:00:00 TS -18.5930 41.7811 main 233 195 _________OP___ -1 -18.7000 41.8000 TC 25 -18.5127 41.7670 1 17 143
1943007S17041 1943 4 SI MM NOT_NAMED 1943-01-07 15:00:00 TS -19.2436 42.3635 main 189 138 _________PP___ -1 -19.2949 42.3702 TC 25 -19.1922 42.3567 1 17 136
1943007S17041 1943 4 SI MM NOT_NAMED 1943-01-07 18:00:00 TS -19.8000 43.0000 main 138 61 _________OO___ -1 -19.8000 43.0000 TC 25 -19.8000 43.0000 1 16 130
1943007S17041 1943 4 SI MM NOT_NAMED 1943-01-07 21:00:00 TS -20.2445 43.6460 main 61 0 _________PP___ -1 -20.2447 43.6353 TC 25 -20.2442 43.6567 1 15 123
1943007S17041 1943 4 SI MM NOT_NAMED 1943-01-08 00:00:00 TS -20.6004 44.3252 main 0 0 _________OP___ -1 -20.6000 44.3000 TC 25 -20.6007 44.3503 1 14 116
1943007S17041 1943 4 SI MM NOT_NAMED 1943-01-08 03:00:00 TS -20.8884 45.0295 main 0 0 _________PP___ -1 -20.8951 45.0151 TC 25 -20.8818 45.0439 1 14 111
1943007S17041 1943 4 SI MM NOT_NAMED 1943-01-08 06:00:00 TS -21.1000 45.7000 main 0 0 _________OO___ -1 -21.1000 45.7000 TC 25 -21.1000 45.7000 1 12 107
1943007S17041 1943 4 SI MM NOT_NAMED 1943-01-08 09:00:00 TS -21.2440 46.2812 main 0 0 _________PP___ -1 -21.2146 46.2805 TC 25 -21.2734 46.2820 1 11 103
1943007S17041 1943 4 SI MM NOT_NAMED 1943-01-08 12:00:00 TS -21.3469 46.8098 main 0 0 _________OP___ -1 -21.3000 46.8000 TC 25 -21.3938 46.8196 1 10 103
1943007S17041 1943 4 SI MM NOT_NAMED 1943-01-08 15:00:00 TS -21.4673 47.3187 main 0 0 _________PP___ -1 -21.4423 47.3150 TC 25 -21.4923 47.3223 1 10 105
1943007S17041 1943 4 SI MM NOT_NAMED 1943-01-08 18:00:00 TS -21.6000 47.8000 main 0 0 _________OO___ -1 -21.6000 47.8000 TC 25 -21.6000 47.8000 1 9 108
1943007S17041 1943 4 SI MM NOT_NAMED 1943-01-08 21:00:00 TS -21.7450 48.2628 main 10 10 _________PP___ -1 -21.7423 48.2577 TC 25 -21.7477 48.2680 1 9 110
1943007S17041 1943 4 SI MM NOT_NAMED 1943-01-09 00:00:00 TS -21.9058 48.7079 main 52 52 _________OP___ -1 -21.9000 48.7000 TC 25 -21.9115 48.7158 1 9 113
1943007S17041 1943 4 SI MM NOT_NAMED 1943-01-09 03:00:00 TS -22.0897 49.1492 main 98 98 _________PP___ -1 -22.0848 49.1427 TC 25 -22.0946 49.1557 1 9 115
1943007S17041 1943 4 SI MM NOT_NAMED 1943-01-09 06:00:00 TS -22.3000 49.6000 main 154 154 _________OO___ -1 -22.3000 49.6000 TC 25 -22.3000 49.6000 1 10 117
1943007S17041 1943 4 SI MM NOT_NAMED 1943-01-09 09:00:00 TS -22.5314 50.0921 main 210 210 _________PP___ -1 -22.5425 50.1000 TC 25 -22.5203 50.0841 1 10 118
1943007S17041 1943 4 SI MM NOT_NAMED 1943-01-09 12:00:00 TS -22.7813 50.5863 main 270 270 _________OP___ -1 -22.8000 50.6000 TC 25 -22.7626 50.5726 1 10 119
1943007S17041 1943 4 SI MM NOT_NAMED 1943-01-09 15:00:00 TS -23.0329 51.0575 main 326 326 _________PP___ -1 -23.0424 51.0652 TC 25 -23.0235 51.0498 1 10 122
1943007S17041 1943 4 SI MM NOT_NAMED 1943-01-09 18:00:00 TS -23.3000 51.5000 main 377 377 _________OO___ -1 -23.3000 51.5000 TC 25 -23.3000 51.5000 1 10 125
1943007S17041 1943 4 SI MM NOT_NAMED 1943-01-09 21:00:00 TS -23.5908 51.9134 main 425 423 _________PP___ -1 -23.5924 51.9151 TC 25 -23.5891 51.9117 1 9 129
1943007S17041 1943 4 SI MM NOT_NAMED 1943-01-10 00:00:00 TS -23.8939 52.2957 main 423 415 _________OP___ -1 -23.9000 52.3000 TC 25 -23.8877 52.2915 1 9 132
1943007S17041 1943 4 SI MM NOT_NAMED 1943-01-10 03:00:00 TS -24.1976 52.6539 main 419 419 _________PP___ -1 -24.2026 52.6572 TC 25 -24.1925 52.6505 1 9 133
1943007S17041 1943 4 SI MM NOT_NAMED 1943-01-10 06:00:00 TS -24.5000 53.0000 main 428 _________OO___ -1 -24.5000 53.0000 TC 25 -24.5000 53.0000 7 9 134

IBTrACS Databaseについて

本データベースは、米国NOAAが公開する1842年以降の世界の熱帯低気圧のベストトラックデータアーカイブInternational Best Track Archive for Climate Stewardship (IBTrACS)を、ウェブで閲覧しやすい形式に変換したものです。

最終更新日:2021-12-03